sensor_id;sensor_type;location;lat;lon;timestamp;pressure;altitude;pressure_sealevel;temperature;humidity
21449;BME280;10885;52.830;13.788;2023-05-25T06:27:38;101966.53;;;14.42;65.86
21449;BME280;10885;52.830;13.788;2023-05-25T06:33:00;101966.56;;;14.84;63.57
21449;BME280;10885;52.830;13.788;2023-05-25T06:38:22;101966.38;;;15.22;61.69
21449;BME280;10885;52.830;13.788;2023-05-25T06:43:43;101961.72;;;15.60;60.30
21449;BME280;10885;52.830;13.788;2023-05-25T06:49:16;101957.91;;;15.98;58.76
21449;BME280;10885;52.830;13.788;2023-05-25T06:54:38;101972.25;;;16.39;57.11
21449;BME280;10885;52.830;13.788;2023-05-25T06:59:59;101968.06;;;16.72;56.10
21449;BME280;10885;52.830;13.788;2023-05-25T07:05:22;101967.72;;;17.14;52.58
21449;BME280;10885;52.830;13.788;2023-05-25T07:10:43;101971.41;;;17.52;51.96
21449;BME280;10885;52.830;13.788;2023-05-25T07:16:04;101967.44;;;17.76;50.95
21449;BME280;10885;52.830;13.788;2023-05-25T07:21:26;101963.66;;;18.04;50.31
21449;BME280;10885;52.830;13.788;2023-05-25T07:26:47;101970.19;;;18.32;48.73
21449;BME280;10885;52.830;13.788;2023-05-25T07:32:09;101977.13;;;18.68;46.97
21449;BME280;10885;52.830;13.788;2023-05-25T07:37:30;101977.72;;;19.20;45.52
21449;BME280;10885;52.830;13.788;2023-05-25T07:42:52;101980.31;;;20.22;43.76
21449;BME280;10885;52.830;13.788;2023-05-25T07:48:13;101972.69;;;20.94;41.50
21449;BME280;10885;52.830;13.788;2023-05-25T07:53:34;101983.25;;;21.21;38.93
21449;BME280;10885;52.830;13.788;2023-05-25T07:58:56;101977.41;;;21.29;39.75
21449;BME280;10885;52.830;13.788;2023-05-25T08:04:19;101978.31;;;21.53;40.83
21449;BME280;10885;52.830;13.788;2023-05-25T08:09:41;101984.81;;;21.92;38.66
21449;BME280;10885;52.830;13.788;2023-05-25T08:15:02;101988.81;;;22.08;38.36
21449;BME280;10885;52.830;13.788;2023-05-25T08:20:24;101996.00;;;22.40;37.40
21449;BME280;10885;52.830;13.788;2023-05-25T08:25:45;101991.97;;;22.50;38.40
21449;BME280;10885;52.830;13.788;2023-05-25T19:29:26;102010.06;;;17.81;43.89
21449;BME280;10885;52.830;13.788;2023-05-25T19:34:47;102005.19;;;17.37;44.59
21449;BME280;10885;52.830;13.788;2023-05-25T19:40:09;102015.94;;;17.44;44.22
21449;BME280;10885;52.830;13.788;2023-05-25T19:45:30;102019.84;;;17.20;44.60
21449;BME280;10885;52.830;13.788;2023-05-25T19:50:52;102029.88;;;16.97;45.56
21449;BME280;10885;52.830;13.788;2023-05-25T19:56:13;102025.25;;;16.77;46.07
21449;BME280;10885;52.830;13.788;2023-05-25T20:01:34;102029.31;;;16.72;45.81
21449;BME280;10885;52.830;13.788;2023-05-25T20:06:55;102030.50;;;16.47;47.14
21449;BME280;10885;52.830;13.788;2023-05-25T20:12:17;102024.94;;;16.24;47.81
21449;BME280;10885;52.830;13.788;2023-05-25T20:17:38;102024.22;;;15.97;48.55
21449;BME280;10885;52.830;13.788;2023-05-25T20:23:00;102028.34;;;15.50;51.08
21449;BME280;10885;52.830;13.788;2023-05-25T20:28:21;102041.63;;;15.71;50.09
21449;BME280;10885;52.830;13.788;2023-05-25T20:33:42;102050.50;;;15.47;51.53
21449;BME280;10885;52.830;13.788;2023-05-25T20:39:04;102048.31;;;15.25;51.75
21449;BME280;10885;52.830;13.788;2023-05-25T20:44:25;102043.22;;;14.98;52.47
21449;BME280;10885;52.830;13.788;2023-05-25T20:49:47;102054.56;;;14.87;53.40
21449;BME280;10885;52.830;13.788;2023-05-25T20:55:08;102051.50;;;14.79;53.76
21449;BME280;10885;52.830;13.788;2023-05-25T21:00:29;102053.19;;;14.79;54.02
21449;BME280;10885;52.830;13.788;2023-05-25T21:05:50;102056.44;;;14.76;54.71
21449;BME280;10885;52.830;13.788;2023-05-25T21:11:11;102053.75;;;14.21;56.24
21449;BME280;10885;52.830;13.788;2023-05-25T21:16:33;102062.47;;;14.23;56.78
21449;BME280;10885;52.830;13.788;2023-05-25T21:21:54;102063.50;;;14.00;57.49
21449;BME280;10885;52.830;13.788;2023-05-25T21:27:15;102062.91;;;13.91;58.05
21449;BME280;10885;52.830;13.788;2023-05-25T21:32:37;102055.84;;;13.88;58.22
21449;BME280;10885;52.830;13.788;2023-05-25T21:37:59;102052.13;;;13.71;58.67
21449;BME280;10885;52.830;13.788;2023-05-25T21:43:20;102066.31;;;13.78;58.58
21449;BME280;10885;52.830;13.788;2023-05-25T21:48:41;102071.63;;;13.93;58.33
21449;BME280;10885;52.830;13.788;2023-05-25T21:54:02;102076.31;;;13.73;59.05
21449;BME280;10885;52.830;13.788;2023-05-25T21:59:22;102086.47;;;13.59;60.00
21449;BME280;10885;52.830;13.788;2023-05-25T22:04:44;102095.16;;;13.47;59.98
21449;BME280;10885;52.830;13.788;2023-05-25T22:10:06;102089.97;;;12.75;62.32
21449;BME280;10885;52.830;13.788;2023-05-25T22:15:27;102101.38;;;12.79;62.15
21449;BME280;10885;52.830;13.788;2023-05-25T22:20:48;102098.78;;;12.43;63.45
21449;BME280;10885;52.830;13.788;2023-05-25T22:26:10;102096.97;;;12.19;64.76
21449;BME280;10885;52.830;13.788;2023-05-25T22:31:31;102103.75;;;11.94;65.99
21449;BME280;10885;52.830;13.788;2023-05-25T22:36:52;102098.41;;;12.15;65.77
21449;BME280;10885;52.830;13.788;2023-05-25T22:42:13;102098.25;;;12.59;63.83
21449;BME280;10885;52.830;13.788;2023-05-25T22:47:34;102092.78;;;12.54;63.66
